Time;durP1;ratioP1;P1;durP2;ratioP2;P2;SDS_P1;SDS_P2;PMS_P1;PMS_P2;Temp;Humidity;BMP_temperature;BMP_pressure;BME280_temperature;BME280_humidity;BME280_pressure;Samples;Min_cycle;Max_cycle;Signal;HPM_P1;HPM_P2
2022/03/07 00:01:27;;;;;;;4.43;2.70;;;;;;;;;;5002748;28;20455;-75
2022/03/07 00:03:55;;;;;;;5.37;2.37;;;;;;;;;;5014627;28;20853;-77
2022/03/07 00:06:22;;;;;;;6.03;2.40;;;;;;;;;;5011545;28;20909;-77
2022/03/07 00:08:50;;;;;;;5.73;2.30;;;;;;;;;;5012614;28;20554;-77
2022/03/07 00:11:17;;;;;;;5.23;2.47;;;;;;;;;;5010054;28;21678;-76
2022/03/07 00:13:44;;;;;;;6.27;2.77;;;;;;;;;;5015949;28;20470;-77
2022/03/07 00:16:11;;;;;;;3.40;1.90;;;;;;;;;;5014020;28;20726;-78
2022/03/07 00:18:40;;;;;;;3.43;1.97;;;;;;;;;;5013468;28;20578;-77
2022/03/07 00:21:08;;;;;;;3.60;2.20;;;;;;;;;;5016576;28;20515;-77
2022/03/07 00:23:35;;;;;;;6.67;2.27;;;;;;;;;;5010923;28;21047;-77
2022/03/07 00:26:03;;;;;;;3.63;2.13;;;;;;;;;;5012803;28;20515;-78
2022/03/07 00:28:30;;;;;;;4.40;2.10;;;;;;;;;;5015237;28;20726;-77
2022/03/07 00:30:57;;;;;;;5.53;2.67;;;;;;;;;;5011749;28;20487;-76
2022/03/07 00:33:24;;;;;;;3.57;2.23;;;;;;;;;;5012340;28;20581;-76
2022/03/07 00:35:53;;;;;;;3.63;2.40;;;;;;;;;;5012874;28;20558;-77
2022/03/07 00:38:20;;;;;;;3.57;2.00;;;;;;;;;;5011772;28;20542;-77
2022/03/07 00:40:47;;;;;;;6.27;2.60;;;;;;;;;;5013003;28;20462;-76
2022/03/07 00:43:14;;;;;;;5.97;2.47;;;;;;;;;;5014534;28;20515;-77
2022/03/07 00:45:42;;;;;;;4.57;2.40;;;;;;;;;;5013747;28;20495;-77
2022/03/07 00:48:09;;;;;;;9.60;2.60;;;;;;;;;;5014007;28;20466;-77
2022/03/07 00:50:42;;;;;;;3.03;2.40;;;;;;;;;;5008780;28;20515;-76
2022/03/07 00:53:10;;;;;;;4.83;2.33;;;;;;;;;;5007242;28;20578;-74
2022/03/07 00:55:38;;;;;;;5.17;2.17;;;;;;;;;;5003967;28;20494;-77
2022/03/07 00:58:05;;;;;;;5.73;2.23;;;;;;;;;;5008212;28;20610;-77
2022/03/07 01:00:32;;;;;;;5.87;2.67;;;;;;;;;;5005929;28;21542;-77
2022/03/07 01:02:59;;;;;;;4.17;2.30;;;;;;;;;;5005724;28;20482;-75
2022/03/07 01:05:26;;;;;;;6.17;2.20;;;;;;;;;;5000739;28;20468;-76
2022/03/07 01:07:53;;;;;;;4.60;2.50;;;;;;;;;;5008667;28;20468;-75
2022/03/07 01:10:22;;;;;;;5.47;2.40;;;;;;;;;;5008965;28;20578;-77
2022/03/07 01:12:49;;;;;;;4.07;2.17;;;;;;;;;;5000240;28;20668;-75
2022/03/07 01:15:17;;;;;;;3.77;2.17;;;;;;;;;;5006046;28;20475;-78
2022/03/07 01:17:44;;;;;;;4.53;2.50;;;;;;;;;;5011168;28;20463;-77
2022/03/07 01:20:12;;;;;;;3.30;2.10;;;;;;;;;;5007411;28;20471;-77
2022/03/07 01:22:41;;;;;;;4.70;2.73;;;;;;;;;;5005195;28;21034;-77
2022/03/07 01:25:09;;;;;;;3.60;2.50;;;;;;;;;;5010358;28;20547;-76
2022/03/07 01:27:37;;;;;;;4.10;2.30;;;;;;;;;;5016658;28;20472;-77
2022/03/07 01:30:06;;;;;;;3.73;2.47;;;;;;;;;;5011797;28;20486;-75
2022/03/07 01:32:33;;;;;;;5.53;2.50;;;;;;;;;;5010678;28;20467;-76
2022/03/07 01:35:00;;;;;;;6.20;2.80;;;;;;;;;;5010956;28;20467;-78
2022/03/07 01:37:28;;;;;;;7.50;2.40;;;;;;;;;;5012889;28;20528;-78
2022/03/07 01:39:55;;;;;;;3.33;2.37;;;;;;;;;;5004692;28;20493;-77
2022/03/07 01:42:22;;;;;;;4.77;2.07;;;;;;;;;;5004007;28;20598;-77
2022/03/07 01:44:51;;;;;;;4.63;2.50;;;;;;;;;;5010837;28;20538;-79
2022/03/07 01:47:18;;;;;;;5.17;2.77;;;;;;;;;;4999836;28;20463;-77
2022/03/07 01:49:45;;;;;;;5.20;2.43;;;;;;;;;;5002525;28;20472;-78
2022/03/07 01:52:18;;;;;;;5.73;2.60;;;;;;;;;;5005994;28;20490;-78
2022/03/07 01:54:46;;;;;;;5.03;2.47;;;;;;;;;;5009065;28;20455;-81
2022/03/07 01:57:14;;;;;;;4.73;2.50;;;;;;;;;;5006989;28;20463;-79
2022/03/07 01:59:41;;;;;;;6.23;2.90;;;;;;;;;;5008120;28;20471;-79
2022/03/07 02:02:10;;;;;;;3.83;2.20;;;;;;;;;;5007967;28;20458;-80
2022/03/07 02:04:40;;;;;;;5.97;2.33;;;;;;;;;;5013319;28;20949;-79
2022/03/07 02:07:07;;;;;;;5.13;2.87;;;;;;;;;;5012058;28;20546;-79
2022/03/07 02:09:45;;;;;;;4.93;2.50;;;;;;;;;;5016620;28;20451;-79
2022/03/07 02:12:12;;;;;;;4.57;2.33;;;;;;;;;;5008769;28;20479;-78
2022/03/07 02:14:40;;;;;;;4.37;2.53;;;;;;;;;;5008810;28;20451;-78
2022/03/07 02:17:07;;;;;;;6.17;2.60;;;;;;;;;;5013934;28;20357;-78
2022/03/07 02:19:36;;;;;;;7.00;2.90;;;;;;;;;;5008319;28;20455;-78
2022/03/07 02:22:06;;;;;;;5.23;2.63;;;;;;;;;;5008626;28;20455;-79
2022/03/07 02:24:33;;;;;;;5.13;2.50;;;;;;;;;;5005278;28;20991;-79
2022/03/07 02:27:01;;;;;;;6.17;2.60;;;;;;;;;;5006182;28;20459;-79
2022/03/07 02:29:29;;;;;;;3.67;2.50;;;;;;;;;;5007668;28;20464;-80
2022/03/07 02:31:57;;;;;;;9.23;3.00;;;;;;;;;;5009575;28;20860;-78
2022/03/07 02:34:24;;;;;;;4.53;2.60;;;;;;;;;;5011036;28;20466;-80
2022/03/07 02:36:51;;;;;;;5.73;2.67;;;;;;;;;;5009452;28;20908;-78
2022/03/07 02:39:20;;;;;;;5.40;2.73;;;;;;;;;;5004304;28;20455;-79
2022/03/07 02:41:48;;;;;;;4.90;2.60;;;;;;;;;;5003559;28;20483;-79
2022/03/07 02:44:16;;;;;;;4.20;2.50;;;;;;;;;;5008872;28;20219;-78
2022/03/07 02:46:43;;;;;;;6.07;2.50;;;;;;;;;;5008292;28;20447;-79
2022/03/07 02:49:11;;;;;;;3.90;2.57;;;;;;;;;;5008185;28;20455;-79
2022/03/07 02:51:38;;;;;;;4.43;2.37;;;;;;;;;;5007812;28;20487;-79
2022/03/07 02:54:05;;;;;;;4.90;2.80;;;;;;;;;;5005502;28;20263;-79
2022/03/07 02:56:34;;;;;;;4.70;2.63;;;;;;;;;;5007780;28;20459;-77
2022/03/07 02:59:01;;;;;;;3.97;2.50;;;;;;;;;;5009272;28;20458;-80
2022/03/07 03:01:28;;;;;;;3.17;2.23;;;;;;;;;;5003743;28;20455;-80
2022/03/07 03:03:55;;;;;;;8.13;2.57;;;;;;;;;;5001854;28;21051;-78
2022/03/07 03:06:22;;;;;;;5.83;2.70;;;;;;;;;;5001947;28;20894;-77
2022/03/07 03:08:50;;;;;;;4.50;2.57;;;;;;;;;;5007356;28;20511;-79
2022/03/07 03:11:17;;;;;;;4.20;2.60;;;;;;;;;;5005171;28;20756;-77
2022/03/07 03:13:45;;;;;;;3.10;2.10;;;;;;;;;;5002287;28;20487;-78
2022/03/07 03:16:13;;;;;;;8.00;2.13;;;;;;;;;;5006646;28;20456;-78
2022/03/07 03:18:40;;;;;;;4.40;2.67;;;;;;;;;;5006407;28;20211;-77
2022/03/07 03:21:07;;;;;;;7.53;2.50;;;;;;;;;;5002332;28;20466;-79
2022/03/07 03:23:34;;;;;;;6.97;3.03;;;;;;;;;;5005602;28;20509;-77
2022/03/07 03:26:02;;;;;;;4.70;2.70;;;;;;;;;;5011159;28;20478;-80
2022/03/07 03:28:29;;;;;;;5.73;3.23;;;;;;;;;;5013429;28;20443;-78
2022/03/07 03:30:58;;;;;;;6.50;2.57;;;;;;;;;;5009567;28;20506;-79
2022/03/07 03:33:25;;;;;;;4.53;2.67;;;;;;;;;;5011898;28;20505;-79
2022/03/07 03:35:52;;;;;;;3.97;2.57;;;;;;;;;;5004456;28;20475;-80
2022/03/07 03:38:19;;;;;;;4.77;2.67;;;;;;;;;;5004147;28;20534;-79
2022/03/07 03:40:46;;;;;;;5.17;2.63;;;;;;;;;;5004454;28;20451;-79
2022/03/07 03:43:14;;;;;;;4.87;2.77;;;;;;;;;;5009300;28;20570;-79
2022/03/07 03:45:41;;;;;;;7.73;2.80;;;;;;;;;;5007058;28;20818;-79
2022/03/07 03:48:09;;;;;;;3.80;2.37;;;;;;;;;;5011072;28;20969;-77
2022/03/07 03:50:36;;;;;;;8.07;2.43;;;;;;;;;;5004639;28;20307;-80
2022/03/07 03:53:04;;;;;;;4.33;2.70;;;;;;;;;;5007744;28;20321;-78
2022/03/07 03:55:31;;;;;;;4.43;2.73;;;;;;;;;;5002717;28;20287;-80
2022/03/07 03:57:58;;;;;;;4.13;2.47;;;;;;;;;;5006519;28;20541;-79
2022/03/07 04:00:27;;;;;;;8.70;2.57;;;;;;;;;;5006797;28;20299;-81
2022/03/07 04:02:54;;;;;;;4.90;2.30;;;;;;;;;;5009541;28;20502;-79
2022/03/07 04:05:23;;;;;;;6.97;2.80;;;;;;;;;;5003260;28;20467;-80
2022/03/07 04:07:50;;;;;;;5.60;3.20;;;;;;;;;;5004434;28;20208;-78
2022/03/07 04:10:17;;;;;;;7.23;2.80;;;;;;;;;;5011955;28;20650;-78
2022/03/07 04:12:45;;;;;;;4.40;2.37;;;;;;;;;;5005481;28;20576;-82
2022/03/07 04:15:12;;;;;;;4.43;2.50;;;;;;;;;;4999721;28;20543;-80
2022/03/07 04:17:40;;;;;;;5.60;2.60;;;;;;;;;;5004895;28;20239;-79
2022/03/07 04:20:08;;;;;;;6.53;2.87;;;;;;;;;;5003068;28;20208;-82
2022/03/07 04:22:37;;;;;;;4.70;2.40;;;;;;;;;;5006152;28;20479;-81
2022/03/07 04:25:05;;;;;;;5.80;3.10;;;;;;;;;;5008315;28;20439;-79
2022/03/07 04:27:32;;;;;;;8.50;2.30;;;;;;;;;;5005065;28;20207;-81
2022/03/07 04:29:59;;;;;;;5.73;2.93;;;;;;;;;;5006173;28;20542;-78
2022/03/07 04:32:26;;;;;;;6.40;2.87;;;;;;;;;;5007415;28;20483;-79
2022/03/07 04:34:53;;;;;;;4.27;2.87;;;;;;;;;;5006062;28;20952;-78
2022/03/07 04:37:20;;;;;;;6.47;2.70;;;;;;;;;;5001567;28;20554;-78
2022/03/07 04:39:49;;;;;;;5.37;3.00;;;;;;;;;;5009394;28;20458;-79
2022/03/07 04:42:16;;;;;;;6.10;2.50;;;;;;;;;;5003353;28;20224;-79
2022/03/07 04:44:43;;;;;;;10.43;3.40;;;;;;;;;;5006431;28;20480;-78
2022/03/07 04:47:10;;;;;;;6.43;2.97;;;;;;;;;;5002838;28;20454;-79
2022/03/07 04:49:38;;;;;;;5.23;3.03;;;;;;;;;;5006043;28;20534;-78
2022/03/07 04:52:05;;;;;;;6.27;3.03;;;;;;;;;;5011680;28;20479;-78
2022/03/07 04:54:32;;;;;;;7.83;3.03;;;;;;;;;;5012065;28;20206;-77
2022/03/07 04:57:01;;;;;;;10.10;3.00;;;;;;;;;;5005664;28;20283;-78
2022/03/07 04:59:28;;;;;;;5.57;2.80;;;;;;;;;;5007276;28;20553;-78
2022/03/07 05:01:55;;;;;;;7.87;3.10;;;;;;;;;;5004782;28;20473;-78
2022/03/07 05:04:22;;;;;;;10.57;3.23;;;;;;;;;;5010884;28;20459;-78
2022/03/07 05:06:50;;;;;;;6.10;2.67;;;;;;;;;;5008228;28;20506;-77
2022/03/07 05:09:17;;;;;;;4.37;2.73;;;;;;;;;;5011240;28;21042;-79
2022/03/07 05:11:44;;;;;;;7.07;2.97;;;;;;;;;;5004395;28;20490;-78
2022/03/07 05:14:13;;;;;;;7.17;2.80;;;;;;;;;;5008801;28;20574;-79
2022/03/07 05:16:40;;;;;;;6.00;3.10;;;;;;;;;;5007315;28;20554;-78
2022/03/07 05:19:07;;;;;;;8.33;3.17;;;;;;;;;;5004173;28;20458;-79
2022/03/07 05:21:35;;;;;;;7.00;3.20;;;;;;;;;;5008423;28;20620;-78
2022/03/07 05:24:02;;;;;;;11.23;3.30;;;;;;;;;;5008062;28;20482;-78
2022/03/07 05:26:29;;;;;;;5.97;3.30;;;;;;;;;;5004397;28;20460;-79
2022/03/07 05:28:56;;;;;;;6.43;3.37;;;;;;;;;;5012773;28;20459;-77
2022/03/07 05:31:25;;;;;;;6.17;3.20;;;;;;;;;;5003416;28;20514;-77
2022/03/07 05:33:52;;;;;;;10.20;3.27;;;;;;;;;;5005997;28;20774;-77
2022/03/07 05:36:19;;;;;;;7.00;3.57;;;;;;;;;;5002721;28;20463;-77
2022/03/07 05:38:46;;;;;;;8.50;3.50;;;;;;;;;;5004923;28;20631;-77
2022/03/07 05:41:14;;;;;;;7.83;3.77;;;;;;;;;;5006257;28;20200;-77
2022/03/07 05:43:41;;;;;;;5.80;3.30;;;;;;;;;;5006534;28;20224;-77
2022/03/07 05:46:08;;;;;;;4.97;3.23;;;;;;;;;;5006341;28;21525;-77
2022/03/07 05:48:37;;;;;;;6.47;2.83;;;;;;;;;;5008968;28;20458;-77
2022/03/07 05:51:04;;;;;;;5.23;3.30;;;;;;;;;;5008769;28;20467;-77
2022/03/07 05:53:31;;;;;;;6.77;3.33;;;;;;;;;;5004718;28;20501;-77
2022/03/07 05:55:58;;;;;;;7.77;3.60;;;;;;;;;;5006666;28;20547;-77
2022/03/07 05:58:25;;;;;;;7.13;3.73;;;;;;;;;;5006466;28;20224;-77
2022/03/07 06:00:52;;;;;;;10.70;4.50;;;;;;;;;;5002555;28;21247;-76
2022/03/07 06:03:19;;;;;;;12.37;4.03;;;;;;;;;;5001983;28;21006;-77
2022/03/07 06:05:48;;;;;;;5.13;3.00;;;;;;;;;;5002528;28;20477;-77
2022/03/07 06:08:17;;;;;;;6.87;3.10;;;;;;;;;;5000811;28;20455;-77
2022/03/07 06:10:44;;;;;;;4.97;3.00;;;;;;;;;;5002779;28;20661;-77
2022/03/07 06:13:11;;;;;;;5.73;2.70;;;;;;;;;;5001689;28;20579;-77
2022/03/07 06:15:43;;;;;;;8.90;3.33;;;;;;;;;;5005182;28;20494;-77
2022/03/07 06:18:10;;;;;;;8.90;3.47;;;;;;;;;;5002776;28;20542;-77
2022/03/07 06:20:38;;;;;;;6.43;3.03;;;;;;;;;;4996251;28;20477;-77
2022/03/07 06:23:07;;;;;;;7.17;3.97;;;;;;;;;;4997820;28;20226;-77
2022/03/07 06:25:44;;;;;;;6.20;3.07;;;;;;;;;;5007695;28;20456;-77
2022/03/07 06:28:11;;;;;;;4.87;3.27;;;;;;;;;;5000753;28;20535;-77
2022/03/07 06:30:38;;;;;;;6.13;3.63;;;;;;;;;;5003404;28;20219;-77
2022/03/07 06:33:05;;;;;;;8.17;3.70;;;;;;;;;;5008840;28;20498;-77
2022/03/07 06:35:32;;;;;;;6.10;3.80;;;;;;;;;;5007612;28;20554;-77
2022/03/07 06:38:00;;;;;;;7.27;4.00;;;;;;;;;;5004987;28;20236;-77
2022/03/07 06:40:29;;;;;;;5.40;3.50;;;;;;;;;;5011854;28;20292;-77
2022/03/07 06:42:57;;;;;;;7.33;3.80;;;;;;;;;;5004259;28;20480;-77
2022/03/07 06:45:24;;;;;;;6.43;3.60;;;;;;;;;;5005563;28;20876;-77
2022/03/07 06:47:54;;;;;;;9.50;3.80;;;;;;;;;;5015414;28;20462;-77
2022/03/07 06:50:21;;;;;;;7.37;3.67;;;;;;;;;;5004422;28;20211;-76
2022/03/07 06:52:48;;;;;;;4.73;3.30;;;;;;;;;;5008946;28;20252;-76
2022/03/07 06:55:15;;;;;;;7.77;3.80;;;;;;;;;;5006608;28;20210;-76
2022/03/07 06:57:44;;;;;;;5.37;3.27;;;;;;;;;;5012118;28;20210;-77
2022/03/07 07:00:13;;;;;;;7.20;3.97;;;;;;;;;;5005908;28;20465;-77
2022/03/07 07:02:40;;;;;;;6.30;3.50;;;;;;;;;;5003271;28;20483;-76
2022/03/07 07:05:08;;;;;;;9.30;4.87;;;;;;;;;;5003872;28;20954;-76
2022/03/07 07:07:36;;;;;;;6.13;3.30;;;;;;;;;;5008754;28;20458;-77
2022/03/07 07:10:04;;;;;;;6.77;3.80;;;;;;;;;;5004202;28;20201;-77
2022/03/07 07:12:32;;;;;;;7.47;3.93;;;;;;;;;;5005534;28;20228;-77
2022/03/07 07:15:00;;;;;;;7.13;3.63;;;;;;;;;;5003662;28;20200;-77
2022/03/07 07:17:27;;;;;;;7.73;3.27;;;;;;;;;;5007303;28;20306;-76
2022/03/07 07:19:54;;;;;;;5.47;3.33;;;;;;;;;;5005940;28;20216;-77
2022/03/07 07:22:22;;;;;;;6.40;3.70;;;;;;;;;;5006028;28;20216;-77
2022/03/07 07:24:49;;;;;;;6.40;4.00;;;;;;;;;;5005503;28;20293;-77
2022/03/07 07:27:16;;;;;;;9.53;3.73;;;;;;;;;;5003779;28;20200;-76
2022/03/07 07:29:43;;;;;;;5.53;3.47;;;;;;;;;;5004299;28;20243;-77
2022/03/07 07:32:12;;;;;;;6.80;3.80;;;;;;;;;;5004776;28;20306;-76
2022/03/07 07:34:39;;;;;;;6.40;3.60;;;;;;;;;;5009920;28;20576;-77
2022/03/07 07:37:10;;;;;;;6.17;3.50;;;;;;;;;;5009300;28;20200;-77
2022/03/07 07:39:37;;;;;;;6.13;3.30;;;;;;;;;;5003402;28;20201;-77
2022/03/07 07:42:04;;;;;;;6.50;3.33;;;;;;;;;;5007110;28;20197;-77
2022/03/07 07:44:32;;;;;;;8.23;3.33;;;;;;;;;;5005821;28;20208;-77
2022/03/07 07:46:59;;;;;;;6.47;3.40;;;;;;;;;;5009082;28;20200;-77
2022/03/07 07:49:29;;;;;;;12.73;3.63;;;;;;;;;;5006728;28;20210;-77
2022/03/07 07:52:02;;;;;;;5.40;3.23;;;;;;;;;;5007458;28;20306;-77
2022/03/07 07:54:31;;;;;;;6.83;3.13;;;;;;;;;;5002648;28;20595;-77
2022/03/07 07:56:58;;;;;;;5.57;3.27;;;;;;;;;;5010177;28;20267;-77
2022/03/07 07:59:25;;;;;;;5.73;3.13;;;;;;;;;;5009171;28;20196;-77
2022/03/07 08:01:52;;;;;;;7.23;3.70;;;;;;;;;;5009713;28;20294;-77
2022/03/07 08:04:20;;;;;;;5.27;3.30;;;;;;;;;;5010920;28;20246;-78
2022/03/07 08:06:48;;;;;;;5.67;3.20;;;;;;;;;;5010425;28;20288;-77
2022/03/07 08:09:16;;;;;;;6.47;3.50;;;;;;;;;;5014029;28;20276;-77
2022/03/07 08:11:43;;;;;;;7.83;3.30;;;;;;;;;;5015691;28;20200;-77
2022/03/07 08:14:10;;;;;;;7.03;3.17;;;;;;;;;;5005880;28;20319;-76
2022/03/07 08:16:38;;;;;;;5.33;2.80;;;;;;;;;;5010570;28;20290;-78
2022/03/07 08:19:05;;;;;;;5.87;2.87;;;;;;;;;;5015277;28;20295;-77
2022/03/07 08:21:32;;;;;;;8.27;3.60;;;;;;;;;;5000919;28;20698;-78
2022/03/07 08:24:01;;;;;;;5.33;3.20;;;;;;;;;;5011459;28;20283;-77
2022/03/07 08:26:28;;;;;;;9.70;3.17;;;;;;;;;;5015427;28;20231;-77
2022/03/07 08:28:55;;;;;;;6.03;3.40;;;;;;;;;;5016375;28;20774;-76
2022/03/07 08:31:22;;;;;;;6.03;3.10;;;;;;;;;;5018371;28;20568;-77
2022/03/07 08:33:50;;;;;;;8.33;3.70;;;;;;;;;;5019198;28;20743;-77
2022/03/07 08:36:17;;;;;;;5.50;3.30;;;;;;;;;;5015231;28;20200;-78
2022/03/07 08:38:44;;;;;;;5.60;2.80;;;;;;;;;;5021474;28;20275;-78
2022/03/07 08:41:12;;;;;;;7.00;2.97;;;;;;;;;;5018805;28;20205;-79
2022/03/07 08:43:42;;;;;;;7.33;3.00;;;;;;;;;;5021184;28;20255;-78
2022/03/07 08:46:09;;;;;;;6.53;2.80;;;;;;;;;;5021814;28;20215;-78
2022/03/07 08:48:36;;;;;;;5.33;3.00;;;;;;;;;;5020041;28;20226;-76
2022/03/07 08:51:03;;;;;;;5.43;3.03;;;;;;;;;;5018170;28;20215;-78
2022/03/07 08:53:30;;;;;;;4.27;2.80;;;;;;;;;;5021674;28;20263;-76
2022/03/07 08:55:58;;;;;;;4.93;2.70;;;;;;;;;;5019167;28;20210;-76
2022/03/07 08:58:26;;;;;;;4.17;2.90;;;;;;;;;;5020571;28;20207;-77
2022/03/07 09:00:53;;;;;;;5.23;2.77;;;;;;;;;;5023527;28;20211;-77
2022/03/07 09:03:20;;;;;;;6.27;2.70;;;;;;;;;;5022689;28;20227;-77
2022/03/07 09:05:48;;;;;;;4.17;2.97;;;;;;;;;;5006508;28;20295;-77
2022/03/07 09:08:15;;;;;;;6.00;3.33;;;;;;;;;;4997491;28;20204;-77
2022/03/07 09:10:42;;;;;;;7.00;3.07;;;;;;;;;;4998483;28;20539;-77
2022/03/07 09:13:09;;;;;;;6.53;3.30;;;;;;;;;;5004600;28;20322;-77
2022/03/07 09:15:39;;;;;;;9.53;3.10;;;;;;;;;;5011037;28;20543;-77
2022/03/07 09:18:07;;;;;;;7.13;3.53;;;;;;;;;;5009327;28;20535;-76
2022/03/07 09:20:34;;;;;;;6.10;2.83;;;;;;;;;;5002767;28;20299;-77
2022/03/07 09:23:01;;;;;;;10.57;3.53;;;;;;;;;;5009856;28;20224;-77
2022/03/07 09:25:28;;;;;;;6.57;3.43;;;;;;;;;;5005107;28;20212;-76
2022/03/07 09:27:56;;;;;;;8.17;3.30;;;;;;;;;;5008356;28;20208;-76
2022/03/07 09:30:36;;;;;;;6.67;3.27;;;;;;;;;;5005902;28;20256;-77
2022/03/07 09:33:04;;;;;;;8.23;3.57;;;;;;;;;;5007238;28;20409;-77
2022/03/07 09:35:31;;;;;;;5.17;3.57;;;;;;;;;;5011829;28;20216;-76
2022/03/07 09:37:59;;;;;;;5.67;3.50;;;;;;;;;;5005736;28;20218;-76
2022/03/07 09:40:26;;;;;;;9.10;3.87;;;;;;;;;;5010493;28;20211;-76
2022/03/07 09:42:53;;;;;;;5.83;3.23;;;;;;;;;;5005187;28;20311;-76
2022/03/07 09:45:20;;;;;;;6.00;3.33;;;;;;;;;;5010150;28;20201;-77
2022/03/07 09:47:49;;;;;;;7.13;3.43;;;;;;;;;;5013605;28;20700;-77
2022/03/07 09:50:17;;;;;;;6.27;3.57;;;;;;;;;;5014895;28;20749;-76
2022/03/07 09:52:45;;;;;;;4.80;3.30;;;;;;;;;;5009538;28;20673;-76
2022/03/07 09:55:14;;;;;;;6.33;3.27;;;;;;;;;;5007294;28;20290;-77
2022/03/07 09:57:41;;;;;;;6.00;3.70;;;;;;;;;;5007768;28;20204;-77
2022/03/07 10:00:09;;;;;;;7.33;3.83;;;;;;;;;;5008012;28;20204;-76
2022/03/07 10:02:37;;;;;;;5.83;3.40;;;;;;;;;;4999184;28;20232;-76
2022/03/07 10:05:05;;;;;;;7.23;3.13;;;;;;;;;;4997113;28;20239;-76
2022/03/07 10:07:43;;;;;;;6.87;3.73;;;;;;;;;;5005667;28;20214;-77
2022/03/07 10:10:11;;;;;;;6.03;3.80;;;;;;;;;;5006367;28;20211;-77
2022/03/07 10:12:45;;;;;;;6.70;3.83;;;;;;;;;;5008009;28;20670;-77
2022/03/07 10:15:13;;;;;;;7.27;4.20;;;;;;;;;;5007497;28;20461;-78
2022/03/07 10:17:41;;;;;;;8.03;4.27;;;;;;;;;;5007590;28;20208;-77
2022/03/07 10:20:09;;;;;;;6.83;3.93;;;;;;;;;;5008073;28;20205;-77
2022/03/07 10:22:45;;;;;;;7.20;3.63;;;;;;;;;;5008894;28;20220;-77
2022/03/07 10:25:12;;;;;;;7.43;4.07;;;;;;;;;;5003333;28;20216;-77
2022/03/07 10:27:40;;;;;;;7.97;3.77;;;;;;;;;;5004628;28;20299;-77
2022/03/07 10:30:10;;;;;;;5.87;3.47;;;;;;;;;;5012220;28;20240;-77
2022/03/07 10:32:38;;;;;;;6.43;3.77;;;;;;;;;;5005405;28;20721;-77
2022/03/07 10:35:05;;;;;;;6.87;4.17;;;;;;;;;;5010110;22;20684;-77
2022/03/07 10:37:33;;;;;;;6.87;4.10;;;;;;;;;;5002133;28;20204;-77
2022/03/07 10:40:02;;;;;;;8.80;4.10;;;;;;;;;;5000754;28;20658;-77
2022/03/07 10:42:29;;;;;;;7.87;3.67;;;;;;;;;;4997102;28;20298;-77
2022/03/07 10:45:03;;;;;;;7.80;4.17;;;;;;;;;;5001227;28;20205;-77
2022/03/07 10:47:31;;;;;;;7.67;3.80;;;;;;;;;;5005420;28;20212;-77
2022/03/07 10:49:59;;;;;;;7.97;3.70;;;;;;;;;;5002789;28;20204;-77
2022/03/07 10:52:28;;;;;;;6.07;3.57;;;;;;;;;;5003827;28;20311;-77
2022/03/07 10:54:55;;;;;;;6.83;3.63;;;;;;;;;;5001372;28;20722;-77
2022/03/07 10:57:23;;;;;;;8.27;3.87;;;;;;;;;;5003714;28;20211;-75
2022/03/07 10:59:50;;;;;;;6.27;3.90;;;;;;;;;;5004918;28;20290;-78
2022/03/07 11:02:18;;;;;;;5.63;3.63;;;;;;;;;;5006738;28;20579;-78
2022/03/07 11:04:48;;;;;;;6.87;3.50;;;;;;;;;;5008870;28;20219;-78
2022/03/07 11:07:15;;;;;;;9.53;3.80;;;;;;;;;;5004293;28;20200;-78
2022/03/07 11:09:43;;;;;;;7.20;3.93;;;;;;;;;;5006732;28;20218;-76
2022/03/07 11:12:12;;;;;;;10.73;4.57;;;;;;;;;;5003279;28;20868;-78
2022/03/07 11:14:42;;;;;;;6.67;3.90;;;;;;;;;;5000510;28;20213;-78
2022/03/07 11:17:12;;;;;;;8.30;4.57;;;;;;;;;;5006188;28;20293;-77
2022/03/07 11:19:41;;;;;;;7.13;4.47;;;;;;;;;;5014438;28;20288;-77
2022/03/07 11:22:08;;;;;;;7.17;4.03;;;;;;;;;;5007845;28;20200;-77
2022/03/07 11:24:36;;;;;;;7.10;4.17;;;;;;;;;;5012451;28;20196;-78
2022/03/07 11:27:04;;;;;;;8.63;4.50;;;;;;;;;;5005600;28;20215;-77
2022/03/07 11:29:36;;;;;;;7.83;4.60;;;;;;;;;;5014156;28;20259;-77
2022/03/07 11:32:05;;;;;;;10.13;4.50;;;;;;;;;;5014955;28;20270;-77
2022/03/07 11:34:34;;;;;;;7.33;3.73;;;;;;;;;;5008484;28;20230;-77
2022/03/07 11:37:04;;;;;;;5.57;3.57;;;;;;;;;;5009307;28;20653;-76
2022/03/07 11:39:32;;;;;;;6.07;3.87;;;;;;;;;;5005217;28;20592;-80
2022/03/07 11:42:08;;;;;;;5.70;3.73;;;;;;;;;;4997942;28;20204;-77
2022/03/07 11:44:35;;;;;;;6.30;3.70;;;;;;;;;;5005732;28;20291;-75
2022/03/07 11:47:10;;;;;;;5.37;3.60;;;;;;;;;;5007977;28;20197;-77
2022/03/07 11:49:38;;;;;;;6.83;3.60;;;;;;;;;;5008345;28;20234;-76
2022/03/07 11:52:06;;;;;;;5.33;3.20;;;;;;;;;;5002826;28;20217;-76
2022/03/07 11:54:34;;;;;;;7.53;4.60;;;;;;;;;;5000114;28;20224;-77
2022/03/07 11:57:08;;;;;;;5.17;3.43;;;;;;;;;;5006628;28;20214;-77
2022/03/07 11:59:35;;;;;;;7.87;3.80;;;;;;;;;;5008851;28;20204;-77
2022/03/07 12:02:05;;;;;;;6.13;3.47;;;;;;;;;;5009450;28;20211;-77
2022/03/07 12:04:41;;;;;;;5.77;3.20;;;;;;;;;;5010807;28;20282;-78
2022/03/07 12:07:08;;;;;;;7.40;4.13;;;;;;;;;;5001351;28;20236;-77
2022/03/07 12:09:36;;;;;;;9.63;4.00;;;;;;;;;;5010533;28;20566;-76
2022/03/07 12:12:08;;;;;;;7.00;3.50;;;;;;;;;;5001499;28;20529;-75
2022/03/07 12:20:51;;;;;;;5.77;3.50;;;;;;;;;;4978692;28;20232;-73
2022/03/07 12:23:20;;;;;;;7.63;3.90;;;;;;;;;;5004957;28;20230;-75
2022/03/07 12:25:47;;;;;;;6.97;3.47;;;;;;;;;;4999996;28;20208;-74
2022/03/07 12:28:15;;;;;;;5.30;3.30;;;;;;;;;;5001402;28;20299;-76
2022/03/07 12:30:42;;;;;;;4.80;3.70;;;;;;;;;;4996785;28;20588;-74
2022/03/07 12:33:10;;;;;;;7.50;3.87;;;;;;;;;;4999935;28;20606;-75
2022/03/07 12:35:37;;;;;;;4.10;3.30;;;;;;;;;;4995588;28;20690;-74
2022/03/07 12:38:08;;;;;;;7.33;4.00;;;;;;;;;;4999548;28;20208;-74
2022/03/07 12:40:37;;;;;;;7.13;3.90;;;;;;;;;;5007794;28;20211;-76
2022/03/07 12:43:04;;;;;;;5.73;3.47;;;;;;;;;;5002151;28;20248;-76
2022/03/07 12:45:33;;;;;;;6.67;3.97;;;;;;;;;;4999309;28;20211;-75
2022/03/07 12:48:01;;;;;;;6.13;3.40;;;;;;;;;;5001089;28;20211;-76
2022/03/07 12:50:30;;;;;;;6.40;3.60;;;;;;;;;;4997467;28;20628;-75
2022/03/07 12:52:57;;;;;;;5.90;3.90;;;;;;;;;;5002029;28;20567;-74
2022/03/07 12:55:25;;;;;;;8.00;3.60;;;;;;;;;;5003727;28;20760;-76
2022/03/07 12:57:57;;;;;;;5.07;3.30;;;;;;;;;;5001236;28;20204;-75
2022/03/07 13:00:24;;;;;;;6.73;3.83;;;;;;;;;;5000085;28;20601;-76
2022/03/07 13:02:54;;;;;;;5.70;3.50;;;;;;;;;;5001418;28;20240;-76
2022/03/07 13:05:23;;;;;;;5.53;3.30;;;;;;;;;;4998321;28;20813;-76
2022/03/07 13:07:57;;;;;;;5.33;3.20;;;;;;;;;;5002771;28;22109;-75
2022/03/07 13:10:26;;;;;;;5.97;3.50;;;;;;;;;;5001158;28;20562;-76
2022/03/07 13:12:54;;;;;;;4.13;3.03;;;;;;;;;;5001256;28;20228;-75
2022/03/07 13:15:21;;;;;;;6.53;3.07;;;;;;;;;;4999040;28;20473;-76
2022/03/07 13:17:57;;;;;;;6.77;3.67;;;;;;;;;;4998420;28;20291;-75
2022/03/07 13:20:25;;;;;;;7.87;3.70;;;;;;;;;;4999825;28;20267;-75
2022/03/07 13:22:52;;;;;;;6.27;3.63;;;;;;;;;;5000026;28;20235;-76
2022/03/07 13:25:19;;;;;;;5.37;3.33;;;;;;;;;;4999051;28;20208;-76
2022/03/07 13:27:49;;;;;;;9.40;3.60;;;;;;;;;;4997420;28;20323;-76
2022/03/07 13:30:17;;;;;;;9.80;3.40;;;;;;;;;;4995612;28;20212;-76
2022/03/07 13:32:44;;;;;;;8.33;3.73;;;;;;;;;;5000923;28;21248;-75
2022/03/07 13:35:22;;;;;;;6.53;3.80;;;;;;;;;;4996614;28;20319;-76
2022/03/07 13:37:49;;;;;;;5.87;3.50;;;;;;;;;;4998510;28;20224;-76
2022/03/07 13:40:17;;;;;;;5.53;3.53;;;;;;;;;;5000064;28;20667;-76
2022/03/07 13:42:45;;;;;;;6.67;3.83;;;;;;;;;;4997712;28;20303;-76
2022/03/07 13:45:14;;;;;;;5.67;3.50;;;;;;;;;;5000025;28;20206;-76
2022/03/07 13:47:41;;;;;;;4.83;3.33;;;;;;;;;;5003441;28;20577;-76
2022/03/07 13:50:10;;;;;;;6.60;3.30;;;;;;;;;;4999916;28;20697;-76
2022/03/07 13:52:38;;;;;;;7.67;3.80;;;;;;;;;;4997103;28;20312;-76
2022/03/07 13:55:06;;;;;;;7.50;3.80;;;;;;;;;;4995135;28;20391;-76
2022/03/07 13:57:34;;;;;;;6.47;3.80;;;;;;;;;;4998304;28;20293;-76
2022/03/07 14:00:03;;;;;;;6.60;3.97;;;;;;;;;;4999953;28;20310;-76
2022/03/07 14:02:32;;;;;;;7.50;4.30;;;;;;;;;;5002111;28;20241;-75
2022/03/07 14:05:00;;;;;;;8.27;3.73;;;;;;;;;;5001481;28;20675;-76
2022/03/07 14:07:29;;;;;;;7.77;4.30;;;;;;;;;;5001225;28;20295;-76
2022/03/07 14:09:57;;;;;;;7.07;4.10;;;;;;;;;;5003289;28;20272;-76
2022/03/07 14:12:31;;;;;;;7.47;3.93;;;;;;;;;;5011580;28;20224;-79
2022/03/07 14:15:03;;;;;;;9.87;4.33;;;;;;;;;;5014241;28;20229;-78
2022/03/07 14:17:30;;;;;;;7.17;4.27;;;;;;;;;;5022045;28;20211;-78
2022/03/07 14:19:59;;;;;;;9.80;4.83;;;;;;;;;;5016428;28;20223;-78
2022/03/07 14:22:29;;;;;;;7.17;4.23;;;;;;;;;;5018315;28;20243;-78
2022/03/07 14:24:57;;;;;;;9.90;4.70;;;;;;;;;;5016165;28;20204;-78
2022/03/07 14:27:26;;;;;;;8.33;4.73;;;;;;;;;;5015235;28;20893;-77
2022/03/07 14:29:53;;;;;;;8.97;4.20;;;;;;;;;;5013230;28;20271;-77
2022/03/07 14:32:20;;;;;;;11.50;4.50;;;;;;;;;;5016745;28;20335;-77
2022/03/07 14:34:49;;;;;;;6.53;4.23;;;;;;;;;;5013205;28;20315;-78
2022/03/07 14:37:17;;;;;;;7.67;4.87;;;;;;;;;;5019790;28;20209;-78
2022/03/07 14:39:44;;;;;;;7.70;4.53;;;;;;;;;;5017530;28;20216;-79
2022/03/07 14:42:12;;;;;;;8.63;5.00;;;;;;;;;;5015598;28;20299;-78
2022/03/07 14:44:41;;;;;;;8.77;4.20;;;;;;;;;;5014992;28;20224;-78
2022/03/07 14:47:09;;;;;;;5.90;4.17;;;;;;;;;;5013182;28;20205;-77
2022/03/07 14:49:37;;;;;;;7.43;4.57;;;;;;;;;;5010669;28;20211;-78
2022/03/07 14:52:05;;;;;;;7.93;4.27;;;;;;;;;;5011898;28;20624;-78
2022/03/07 14:54:33;;;;;;;6.80;4.30;;;;;;;;;;5011041;28;20697;-78